createdAt,value
2022-09-09T00:01:55.433Z,15.20
2022-09-09T00:04:29.928Z,15.20
2022-09-09T00:07:18.604Z,15.10
2022-09-09T00:10:00.177Z,15.10
2022-09-09T00:12:50.601Z,15.10
2022-09-09T00:15:24.506Z,15.10
2022-09-09T00:17:58.859Z,15.10
2022-09-09T00:20:53.049Z,15.20
2022-09-09T00:23:30.121Z,15.20
2022-09-09T00:26:28.829Z,15.00
2022-09-09T00:29:15.748Z,14.90
2022-09-09T00:31:42.643Z,14.90
2022-09-09T00:34:21.457Z,15.10
2022-09-09T00:36:52.170Z,15.10
2022-09-09T00:39:38.170Z,15.10
2022-09-09T00:42:19.368Z,15.20
2022-09-09T00:45:18.391Z,15.20
2022-09-09T00:47:50.581Z,15.30
2022-09-09T00:50:56.204Z,15.30
2022-09-09T00:53:59.504Z,15.40
2022-09-09T00:56:36.189Z,15.30
2022-09-09T00:59:28.723Z,15.30
2022-09-09T01:01:56.605Z,15.00
2022-09-09T01:04:33.526Z,15.10
2022-09-09T01:07:14.178Z,14.90
2022-09-09T01:09:57.324Z,15.10
2022-09-09T01:12:47.972Z,15.20
2022-09-09T01:15:23.949Z,15.50
2022-09-09T01:18:02.416Z,15.50
2022-09-09T01:21:01.285Z,15.20
2022-09-09T01:24:00.142Z,15.20
2022-09-09T01:26:30.458Z,15.30
2022-09-09T01:29:00.661Z,15.30
2022-09-09T01:32:03.832Z,15.20
2022-09-09T01:34:41.149Z,15.20
2022-09-09T01:37:13.214Z,15.20
2022-09-09T01:39:45.292Z,15.20
2022-09-09T01:42:17.336Z,15.40
2022-09-09T01:44:44.937Z,15.40
2022-09-09T01:47:11.636Z,15.60
2022-09-09T01:49:53.994Z,15.50
2022-09-09T01:52:25.081Z,15.50
2022-09-09T01:54:51.795Z,15.20
2022-09-09T01:57:28.770Z,15.10
2022-09-09T02:00:14.683Z,15.20
2022-09-09T02:02:50.606Z,15.40
2022-09-09T02:05:37.797Z,15.40
2022-09-09T02:08:12.898Z,15.20
2022-09-09T02:11:02.732Z,15.20
2022-09-09T02:13:39.179Z,15.40
2022-09-09T02:16:19.943Z,15.20
2022-09-09T02:19:00.101Z,15.40
2022-09-09T02:21:37.834Z,15.40
2022-09-09T02:24:10.733Z,15.30
2022-09-09T02:26:47.270Z,15.20
2022-09-09T02:29:21.274Z,15.40
2022-09-09T02:31:50.540Z,15.50
2022-09-09T02:34:24.578Z,15.50
2022-09-09T02:36:54.607Z,15.30
2022-09-09T02:39:21.325Z,15.40
2022-09-09T02:41:50.224Z,15.40
2022-09-09T02:44:18.820Z,15.40
2022-09-09T02:47:06.094Z,15.40
2022-09-09T02:49:57.180Z,15.30
2022-09-09T02:52:53.365Z,15.30
2022-09-09T02:56:02.112Z,15.20
2022-09-09T02:58:29.795Z,15.40
2022-09-09T03:01:03.840Z,15.50
2022-09-09T03:03:31.901Z,15.40
2022-09-09T03:06:00.921Z,15.30
2022-09-09T03:08:28.655Z,15.10
2022-09-09T03:11:02.032Z,15.10
2022-09-09T03:13:31.176Z,15.10
2022-09-09T03:15:57.900Z,15.20
2022-09-09T03:18:25.168Z,15.00
2022-09-09T03:20:55.019Z,15.10
2022-09-09T03:23:22.630Z,15.10
2022-09-09T03:25:50.768Z,15.10
2022-09-09T03:28:21.579Z,14.90
2022-09-09T03:30:49.926Z,15.00
2022-09-09T03:33:17.175Z,15.10
2022-09-09T03:35:49.634Z,15.10
2022-09-09T03:38:18.355Z,14.70
2022-09-09T03:40:56.548Z,14.60
2022-09-09T03:43:25.155Z,14.80
2022-09-09T03:45:54.190Z,14.80
2022-09-09T03:48:20.845Z,14.80
2022-09-09T03:50:53.134Z,14.80
2022-09-09T03:53:21.932Z,14.80
2022-09-09T03:55:50.923Z,14.80
2022-09-09T03:58:20.629Z,15.00
2022-09-09T04:01:04.140Z,15.20
2022-09-09T04:03:31.316Z,15.10
2022-09-09T04:06:00.480Z,15.20
2022-09-09T04:08:29.341Z,15.00
2022-09-09T04:10:58.870Z,15.00
2022-09-09T04:13:27.394Z,15.00
2022-09-09T04:15:56.824Z,15.10
2022-09-09T04:18:23.757Z,15.20
2022-09-09T04:20:51.897Z,15.20
2022-09-09T04:23:21.605Z,15.10
2022-09-09T04:25:50.962Z,15.00
2022-09-09T04:28:20.407Z,15.10
2022-09-09T04:30:47.613Z,15.00
2022-09-09T04:33:15.203Z,14.90
2022-09-09T04:35:47.942Z,14.90
2022-09-09T04:38:16.959Z,15.00
2022-09-09T04:40:47.476Z,15.10
2022-09-09T04:43:15.685Z,15.20
2022-09-09T04:45:44.874Z,15.00
2022-09-09T04:48:11.629Z,14.90
2022-09-09T04:50:38.280Z,15.00
2022-09-09T04:53:06.124Z,14.90
2022-09-09T04:55:35.295Z,14.90
2022-09-09T04:58:09.282Z,14.80
2022-09-09T05:00:36.818Z,14.70
2022-09-09T05:03:06.883Z,14.70
2022-09-09T05:05:37.564Z,14.80
2022-09-09T05:08:09.827Z,14.90
2022-09-09T05:10:39.083Z,15.00
2022-09-09T05:13:07.395Z,14.70
2022-09-09T05:15:34.673Z,14.70
2022-09-09T05:18:03.402Z,14.80
2022-09-09T05:20:32.712Z,14.90
2022-09-09T05:22:59.765Z,14.90
2022-09-09T05:25:29.464Z,14.90
2022-09-09T05:27:57.337Z,15.10
2022-09-09T05:30:27.251Z,15.30
2022-09-09T05:32:57.189Z,15.00
2022-09-09T05:35:24.001Z,15.10
2022-09-09T05:37:50.693Z,15.10
2022-09-09T05:40:17.396Z,14.90
2022-09-09T05:42:44.145Z,15.10
2022-09-09T05:45:11.016Z,15.00
2022-09-09T05:47:39.065Z,15.00
2022-09-09T05:50:08.877Z,15.00
2022-09-09T05:52:35.522Z,15.10
2022-09-09T05:55:02.250Z,15.10
2022-09-09T05:57:29.420Z,15.10
2022-09-09T05:59:56.149Z,15.40
2022-09-09T06:02:22.915Z,15.40
2022-09-09T06:04:50.489Z,15.40
2022-09-09T06:07:17.623Z,15.40
2022-09-09T06:09:44.273Z,15.50
2022-09-09T06:12:12.524Z,15.60
2022-09-09T06:14:44.395Z,15.50
2022-09-09T06:17:12.965Z,15.70
2022-09-09T06:19:39.794Z,15.70
2022-09-09T06:22:07.405Z,15.60
2022-09-09T06:24:36.921Z,15.50
2022-09-09T06:27:04.166Z,15.70
2022-09-09T06:29:34.401Z,15.80
2022-09-09T06:32:02.424Z,15.90
2022-09-09T06:34:29.396Z,16.00
2022-09-09T06:36:59.253Z,16.00
2022-09-09T06:39:29.850Z,16.10
2022-09-09T06:41:56.612Z,16.10
2022-09-09T06:44:51.256Z,16.40
2022-09-09T06:47:36.427Z,16.50
2022-09-09T06:50:04.088Z,16.50
2022-09-09T06:52:35.410Z,16.50
2022-09-09T06:55:03.633Z,16.50
2022-09-09T06:57:37.359Z,16.60
2022-09-09T07:00:07.302Z,16.80
2022-09-09T07:02:39.787Z,16.80
2022-09-09T07:05:07.469Z,16.80
2022-09-09T07:07:35.203Z,16.80
2022-09-09T07:10:01.990Z,16.80
2022-09-09T07:12:29.305Z,17.00
2022-09-09T07:14:59.370Z,17.10
2022-09-09T07:17:26.116Z,17.10
2022-09-09T07:19:53.210Z,17.10
2022-09-09T07:22:21.076Z,17.40
2022-09-09T07:24:47.832Z,17.50
2022-09-09T07:27:15.401Z,17.50
2022-09-09T07:29:42.480Z,17.50
2022-09-09T07:32:10.728Z,17.50
2022-09-09T07:34:38.343Z,17.60
2022-09-09T07:37:06.197Z,17.70
2022-09-09T07:39:33.734Z,17.90
2022-09-09T07:42:00.438Z,18.20
2022-09-09T07:44:28.176Z,18.20
2022-09-09T07:47:01.577Z,18.00
2022-09-09T07:49:35.121Z,18.00
2022-09-09T07:52:04.396Z,18.00
2022-09-09T07:54:32.985Z,18.30
2022-09-09T07:57:00.998Z,18.30
2022-09-09T07:59:30.835Z,18.30
2022-09-09T08:01:59.401Z,18.30
2022-09-09T08:04:29.416Z,18.20
2022-09-09T08:06:59.085Z,18.20
2022-09-09T08:09:30.121Z,18.20
2022-09-09T08:12:21.301Z,18.30
2022-09-09T08:14:49.461Z,18.50
2022-09-09T08:17:16.543Z,18.80
2022-09-09T08:19:45.465Z,19.00
2022-09-09T08:22:17.153Z,19.00
2022-09-09T08:24:44.739Z,18.80
2022-09-09T08:27:11.533Z,18.60
2022-09-09T08:29:39.441Z,18.30
2022-09-09T08:32:06.797Z,18.40
2022-09-09T08:34:34.950Z,18.80
2022-09-09T08:37:05.991Z,19.20
2022-09-09T08:39:37.834Z,19.50
2022-09-09T08:42:14.565Z,19.60
2022-09-09T08:44:57.149Z,19.80
2022-09-09T08:47:47.017Z,20.10
2022-09-09T08:50:28.957Z,20.30
2022-09-09T08:53:09.397Z,20.50
2022-09-09T08:55:44.340Z,20.20
2022-09-09T08:58:35.150Z,20.30
2022-09-09T09:01:10.738Z,20.50
2022-09-09T09:04:05.689Z,20.70
2022-09-09T09:06:36.950Z,20.80
2022-09-09T09:09:43.981Z,21.20
2022-09-09T09:12:36.859Z,21.50
2022-09-09T09:15:11.906Z,21.70
2022-09-09T09:17:39.727Z,21.30
2022-09-09T09:20:14.423Z,21.10
2022-09-09T09:22:51.601Z,20.80
2022-09-09T09:25:23.461Z,20.40
2022-09-09T09:28:01.609Z,20.10
2022-09-09T09:30:36.347Z,19.40
2022-09-09T09:33:18.983Z,19.30
2022-09-09T09:35:47.339Z,19.20
2022-09-09T09:41:10.465Z,19.60
2022-09-09T09:43:43.483Z,20.10
2022-09-09T09:46:28.294Z,20.60
2022-09-09T09:49:03.740Z,20.70
2022-09-09T09:51:33.869Z,20.60
2022-09-09T09:54:28.526Z,20.50
2022-09-09T09:57:12.671Z,20.10
2022-09-09T09:59:41.219Z,19.30
2022-09-09T10:02:27.625Z,18.60
2022-09-09T10:05:26.837Z,18.10
2022-09-09T10:08:12.285Z,17.70
2022-09-09T10:10:48.301Z,17.20
2022-09-09T10:13:30.281Z,17.40
2022-09-09T10:16:25.137Z,17.70
2022-09-09T10:19:20.148Z,19.10
2022-09-09T10:22:00.941Z,20.60
2022-09-09T10:24:50.205Z,21.20
2022-09-09T10:27:45.251Z,21.50
2022-09-09T10:30:19.582Z,21.70
2022-09-09T10:36:10.215Z,22.50
2022-09-09T10:38:47.424Z,22.50
2022-09-09T10:41:52.292Z,22.00
2022-09-09T10:44:46.265Z,22.00
2022-09-09T10:47:29.236Z,22.00
2022-09-09T10:50:01.645Z,21.80
2022-09-09T10:52:34.053Z,21.60
2022-09-09T10:55:11.233Z,22.00
2022-09-09T10:57:53.044Z,22.30
2022-09-09T11:00:21.557Z,22.90
2022-09-09T11:03:08.289Z,23.10
2022-09-09T11:06:01.286Z,23.00
2022-09-09T11:08:30.921Z,22.80
2022-09-09T11:11:33.073Z,22.70
2022-09-09T11:14:20.895Z,22.90
2022-09-09T11:16:54.525Z,23.00
2022-09-09T11:19:40.436Z,22.60
2022-09-09T11:22:33.224Z,22.50
2022-09-09T11:25:10.825Z,22.40
2022-09-09T11:27:56.315Z,22.60
2022-09-09T11:30:56.169Z,23.10
2022-09-09T11:33:50.988Z,23.50
2022-09-09T11:36:31.392Z,23.70
2022-09-09T11:39:20.305Z,23.70
2022-09-09T11:41:47.044Z,23.80
2022-09-09T11:44:19.048Z,24.30
2022-09-09T11:46:49.225Z,24.10
2022-09-09T11:49:46.513Z,23.90
2022-09-09T11:52:22.288Z,23.00
2022-09-09T11:54:51.101Z,23.10
2022-09-09T11:57:26.974Z,22.80
2022-09-09T11:59:54.078Z,22.10
2022-09-09T12:02:27.556Z,21.90
2022-09-09T12:05:06.713Z,21.70
2022-09-09T12:07:39.200Z,22.50
2022-09-09T12:10:37.256Z,23.00
2022-09-09T12:13:21.596Z,23.30
2022-09-09T12:15:54.594Z,22.90
2022-09-09T12:18:26.609Z,22.30
2022-09-09T12:21:37.441Z,22.20
2022-09-09T12:24:10.029Z,22.20
2022-09-09T12:26:36.683Z,22.80
2022-09-09T12:29:25.327Z,23.40
2022-09-09T12:32:21.122Z,24.00
2022-09-09T12:35:02.136Z,24.50
2022-09-09T12:37:34.238Z,25.10
2022-09-09T12:40:07.515Z,25.00
2022-09-09T12:42:37.931Z,25.20
2022-09-09T12:45:18.114Z,25.50
2022-09-09T12:47:57.088Z,25.60
2022-09-09T12:50:33.029Z,25.60
2022-09-09T12:53:04.702Z,25.30
2022-09-09T12:55:38.770Z,24.80
2022-09-09T12:58:07.087Z,25.10
2022-09-09T13:00:35.556Z,24.70
2022-09-09T13:03:16.901Z,23.50
2022-09-09T13:05:43.561Z,23.20
2022-09-09T13:08:12.637Z,22.90
2022-09-09T13:10:54.734Z,22.70
2022-09-09T13:13:28.003Z,22.90
2022-09-09T13:16:00.256Z,23.40
2022-09-09T13:18:40.261Z,23.50
2022-09-09T13:21:07.816Z,24.00
2022-09-09T13:23:37.822Z,24.70
2022-09-09T13:26:28.122Z,24.80
2022-09-09T13:28:56.483Z,24.70
2022-09-09T13:31:31.011Z,24.40
2022-09-09T13:33:59.086Z,23.90
2022-09-09T13:36:35.664Z,23.70
2022-09-09T13:39:05.574Z,24.00
2022-09-09T13:41:45.650Z,24.40
2022-09-09T13:44:29.355Z,24.80
2022-09-09T13:47:21.417Z,24.50
2022-09-09T13:49:48.274Z,23.80
2022-09-09T13:52:17.850Z,23.80
2022-09-09T13:54:52.114Z,23.70
2022-09-09T13:57:26.460Z,23.50
2022-09-09T14:00:11.098Z,23.20
2022-09-09T14:02:39.816Z,22.70
2022-09-09T14:05:06.839Z,22.30
2022-09-09T14:07:33.608Z,22.30
2022-09-09T14:10:01.147Z,22.10
2022-09-09T14:12:28.051Z,21.90
2022-09-09T14:14:54.818Z,21.30
2022-09-09T14:17:23.155Z,20.80
2022-09-09T14:19:49.804Z,20.10
2022-09-09T14:22:16.631Z,19.50
2022-09-09T14:24:43.603Z,19.50
2022-09-09T14:27:10.384Z,19.60
2022-09-09T14:29:37.076Z,19.60
2022-09-09T14:32:04.142Z,19.60
2022-09-09T14:34:32.777Z,19.70
2022-09-09T14:36:59.970Z,20.00
2022-09-09T14:39:27.209Z,20.60
2022-09-09T14:41:53.916Z,21.10
2022-09-09T14:44:20.544Z,21.20
2022-09-09T14:46:47.189Z,21.00
2022-09-09T14:49:13.970Z,21.00
2022-09-09T14:51:40.772Z,21.10
2022-09-09T14:54:07.519Z,20.60
2022-09-09T14:56:38.815Z,20.20
2022-09-09T14:59:05.957Z,20.00
2022-09-09T15:01:33.166Z,20.10
2022-09-09T15:04:01.973Z,20.30
2022-09-09T15:06:30.921Z,20.30
2022-09-09T15:09:01.402Z,20.40
2022-09-09T15:11:38.440Z,20.60
2022-09-09T15:14:06.318Z,20.70
2022-09-09T15:16:33.281Z,20.90
2022-09-09T15:19:01.809Z,20.80
2022-09-09T15:21:31.897Z,20.80
2022-09-09T15:23:59.097Z,20.60
2022-09-09T15:26:27.018Z,20.60
2022-09-09T15:28:55.086Z,20.70
2022-09-09T15:31:24.191Z,20.70
2022-09-09T15:34:02.073Z,20.70
2022-09-09T15:36:30.213Z,20.30
2022-09-09T15:38:57.231Z,20.40
2022-09-09T15:41:24.125Z,20.50
2022-09-09T15:43:53.871Z,20.20
2022-09-09T15:46:28.150Z,20.10
2022-09-09T15:48:57.508Z,20.10
2022-09-09T15:51:41.845Z,20.10
2022-09-09T15:54:11.087Z,20.30
2022-09-09T15:56:37.734Z,20.20
2022-09-09T15:59:04.913Z,20.10
2022-09-09T16:01:33.286Z,20.20
2022-09-09T16:04:00.962Z,20.10
2022-09-09T16:06:29.660Z,20.00
2022-09-09T16:08:58.826Z,19.70
2022-09-09T16:11:33.609Z,19.60
2022-09-09T16:14:01.110Z,19.60
2022-09-09T16:16:29.709Z,19.60
2022-09-09T16:18:59.105Z,19.40
2022-09-09T16:21:32.432Z,19.40
2022-09-09T16:24:02.861Z,19.40
2022-09-09T16:26:32.760Z,19.70
2022-09-09T16:29:00.543Z,19.80
2022-09-09T16:31:28.747Z,19.80
2022-09-09T16:33:57.090Z,19.90
2022-09-09T16:36:26.560Z,19.80
2022-09-09T16:38:58.585Z,19.40
2022-09-09T16:41:28.580Z,19.20
2022-09-09T16:43:57.559Z,18.90
2022-09-09T16:46:25.257Z,18.20
2022-09-09T16:48:53.044Z,17.70
2022-09-09T16:51:25.530Z,17.70
2022-09-09T16:53:53.373Z,17.90
2022-09-09T16:56:22.829Z,17.90
2022-09-09T16:58:56.113Z,17.70
2022-09-09T17:01:28.382Z,17.60
2022-09-09T17:04:00.645Z,17.60
2022-09-09T17:06:29.820Z,17.40
2022-09-09T17:08:58.116Z,17.20
2022-09-09T17:11:25.421Z,17.00
2022-09-09T17:13:53.478Z,17.00
2022-09-09T17:16:22.730Z,17.10
2022-09-09T17:18:51.373Z,17.30
2022-09-09T17:21:21.793Z,17.40
2022-09-09T17:23:48.865Z,17.50
2022-09-09T17:26:18.996Z,17.80
2022-09-09T17:28:49.184Z,17.80
2022-09-09T17:31:17.927Z,17.80
2022-09-09T17:33:49.308Z,17.90
2022-09-09T17:36:17.495Z,17.90
2022-09-09T17:38:45.109Z,18.10
2022-09-09T17:41:15.852Z,18.40
2022-09-09T17:43:43.361Z,18.50
2022-09-09T17:46:22.445Z,18.60
2022-09-09T17:48:51.786Z,18.70
2022-09-09T17:51:24.599Z,18.50
2022-09-09T17:53:52.227Z,18.40
2022-09-09T17:56:20.994Z,18.40
2022-09-09T17:58:51.486Z,18.20
2022-09-09T18:01:24.453Z,17.80
2022-09-09T18:03:52.299Z,17.40
2022-09-09T18:06:22.800Z,17.20
2022-09-09T18:08:54.319Z,17.20
2022-09-09T18:11:23.578Z,17.20
2022-09-09T18:13:51.549Z,17.10
2022-09-09T18:16:18.635Z,17.00
2022-09-09T18:18:46.657Z,17.10
2022-09-09T18:21:14.085Z,17.00
2022-09-09T18:23:47.185Z,16.80
2022-09-09T18:26:19.807Z,17.00
2022-09-09T18:28:53.617Z,16.80
2022-09-09T18:31:23.605Z,16.30
2022-09-09T18:33:53.169Z,16.40
2022-09-09T18:36:22.397Z,16.40
2022-09-09T18:38:49.647Z,16.50
2022-09-09T18:41:27.169Z,16.40
2022-09-09T18:43:57.338Z,16.50
2022-09-09T18:46:25.605Z,16.60
2022-09-09T18:48:52.338Z,16.70
2022-09-09T18:51:21.887Z,16.90
2022-09-09T18:53:52.717Z,17.00
2022-09-09T18:56:19.567Z,17.00
2022-09-09T18:58:47.697Z,16.90
2022-09-09T19:01:15.611Z,17.10
2022-09-09T19:03:42.493Z,17.20
2022-09-09T19:06:14.991Z,17.20
2022-09-09T19:08:43.232Z,17.20
2022-09-09T19:11:13.508Z,17.10
2022-09-09T19:13:40.447Z,16.80
2022-09-09T19:16:13.242Z,16.80
2022-09-09T19:18:41.093Z,16.90
2022-09-09T19:21:11.980Z,17.00
2022-09-09T19:23:39.029Z,16.90
2022-09-09T19:26:06.348Z,16.90
2022-09-09T19:28:35.301Z,17.00
2022-09-09T19:31:06.550Z,17.00
2022-09-09T19:33:33.857Z,16.80
2022-09-09T19:36:03.034Z,16.60
2022-09-09T19:38:30.348Z,16.40
2022-09-09T19:41:02.090Z,16.60
2022-09-09T19:43:29.138Z,16.80
2022-09-09T19:46:07.298Z,16.70
2022-09-09T19:48:37.347Z,16.90
2022-09-09T19:51:06.398Z,16.80
2022-09-09T19:53:36.142Z,16.70
2022-09-09T19:56:04.077Z,16.80
2022-09-09T19:58:33.499Z,16.70
2022-09-09T20:01:07.524Z,16.90
2022-09-09T20:03:38.108Z,17.00
2022-09-09T20:06:09.518Z,17.00
2022-09-09T20:08:37.521Z,17.10
2022-09-09T20:11:05.096Z,17.00
2022-09-09T20:13:33.957Z,16.80
2022-09-09T20:16:03.849Z,16.70
2022-09-09T20:18:32.386Z,16.50
2022-09-09T20:21:15.364Z,16.40
2022-09-09T20:23:43.274Z,16.30
2022-09-09T20:26:12.892Z,16.20
2022-09-09T20:28:41.158Z,16.20
2022-09-09T20:31:14.839Z,16.40
2022-09-09T20:33:43.171Z,16.50
2022-09-09T20:36:23.592Z,16.40
2022-09-09T20:38:55.538Z,16.30
2022-09-09T20:41:22.881Z,16.30
2022-09-09T20:43:51.921Z,16.10
2022-09-09T20:46:24.918Z,16.10
2022-09-09T20:48:52.642Z,16.30
2022-09-09T20:51:23.523Z,16.20
2022-09-09T20:54:03.712Z,16.40
2022-09-09T20:56:33.729Z,16.30
2022-09-09T20:59:01.215Z,16.30
2022-09-09T21:01:28.301Z,16.30
2022-09-09T21:03:55.573Z,16.20
2022-09-09T21:06:22.744Z,16.30
2022-09-09T21:08:49.917Z,16.10
2022-09-09T21:11:17.431Z,16.00
2022-09-09T21:13:44.792Z,15.80
2022-09-09T21:16:15.380Z,15.90
2022-09-09T21:18:44.325Z,15.80
2022-09-09T21:21:11.233Z,15.80
2022-09-09T21:23:38.671Z,15.90
2022-09-09T21:26:06.565Z,16.10
2022-09-09T21:28:34.475Z,16.20
2022-09-09T21:31:01.636Z,16.10
2022-09-09T21:33:28.720Z,16.00
2022-09-09T21:36:02.725Z,15.70
2022-09-09T21:38:29.751Z,15.60
2022-09-09T21:40:56.689Z,15.50
2022-09-09T21:43:26.391Z,15.60
2022-09-09T21:45:53.590Z,15.70
2022-09-09T21:48:20.274Z,15.70
2022-09-09T21:50:48.077Z,15.80
2022-09-09T21:53:18.896Z,15.60
2022-09-09T21:55:46.508Z,15.20
2022-09-09T21:58:14.295Z,15.10
2022-09-09T22:00:42.509Z,15.30
2022-09-09T22:03:09.427Z,15.50
2022-09-09T22:05:40.972Z,15.50
2022-09-09T22:08:08.435Z,15.40
2022-09-09T22:10:40.568Z,15.50
2022-09-09T22:13:07.800Z,15.60
2022-09-09T22:15:36.259Z,15.40
2022-09-09T22:18:03.928Z,15.30
2022-09-09T22:20:33.318Z,15.40
2022-09-09T22:23:00.824Z,15.20
2022-09-09T22:25:28.334Z,15.10
2022-09-09T22:27:55.920Z,15.00
2022-09-09T22:30:22.625Z,15.10
2022-09-09T22:32:50.865Z,15.20
2022-09-09T22:35:17.563Z,15.40
2022-09-09T22:37:44.354Z,15.40
2022-09-09T22:40:12.144Z,15.30
2022-09-09T22:42:38.761Z,15.30
2022-09-09T22:45:06.030Z,15.20
2022-09-09T22:47:33.777Z,15.30
2022-09-09T22:50:01.832Z,15.20
2022-09-09T22:52:31.731Z,15.20
2022-09-09T22:54:59.065Z,15.20
2022-09-09T22:57:26.337Z,15.30
2022-09-09T22:59:53.004Z,15.40
2022-09-09T23:02:21.703Z,15.60
2022-09-09T23:04:48.657Z,15.60
2022-09-09T23:07:19.706Z,15.30
2022-09-09T23:09:47.556Z,15.20
2022-09-09T23:12:14.788Z,15.00
2022-09-09T23:14:41.503Z,15.10
2022-09-09T23:17:08.660Z,15.10
2022-09-09T23:19:37.003Z,15.20
2022-09-09T23:22:03.724Z,15.30
2022-09-09T23:24:30.343Z,15.10
2022-09-09T23:26:56.956Z,15.00
2022-09-09T23:29:23.588Z,15.10
2022-09-09T23:31:50.228Z,15.20
2022-09-09T23:34:16.976Z,15.20
2022-09-09T23:36:43.857Z,15.00
2022-09-09T23:39:11.649Z,15.10
2022-09-09T23:41:40.082Z,15.00
2022-09-09T23:44:07.368Z,15.10
2022-09-09T23:46:35.309Z,15.20
2022-09-09T23:49:03.707Z,15.50
2022-09-09T23:51:31.823Z,15.40
2022-09-09T23:54:03.685Z,15.40
2022-09-09T23:56:37.653Z,15.30
2022-09-09T23:59:05.745Z,15.30
